Time;durP1;ratioP1;P1;durP2;ratioP2;P2;SDS_P1;SDS_P2;PMS_P1;PMS_P2;Temp;Humidity;BMP_temperature;BMP_pressure;BME280_temperature;BME280_humidity;BME280_pressure;Samples;Min_cycle;Max_cycle;Signal;HPM_P1;HPM_P2
2022/12/13 00:03:00;;;;;;;14.02;12.63;;;;;;;-3.49;84.08;99628.16;10402078;28;20049;-70
2022/12/13 00:08:02;;;;;;;13.57;12.32;;;;;;;-3.50;83.89;99623.84;10418685;28;20064;-69
2022/12/13 00:13:03;;;;;;;14.77;13.38;;;;;;;-3.46;82.47;99615.34;10419087;28;20045;-70
2022/12/13 00:18:05;;;;;;;13.60;12.35;;;;;;;-3.53;83.30;99615.25;10418819;28;20038;-70
2022/12/13 00:23:07;;;;;;;15.85;14.07;;;;;;;-3.43;81.86;99599.13;10401845;28;20099;-70
2022/12/13 00:28:09;;;;;;;13.20;12.00;;;;;;;-3.44;82.81;99603.41;10418391;28;20037;-70
2022/12/13 00:33:11;;;;;;;14.80;13.40;;;;;;;-3.43;81.44;99600.00;10400312;28;20045;-70
2022/12/13 00:38:13;;;;;;;13.77;12.40;;;;;;;-3.40;80.62;99596.63;10418433;28;20120;-70
2022/12/13 00:43:15;;;;;;;13.98;12.68;;;;;;;-3.52;81.39;99606.69;10400337;28;20045;-70
2022/12/13 00:48:17;;;;;;;14.50;13.18;;;;;;;-3.65;81.78;99603.91;10399677;28;20053;-70
2022/12/13 00:53:18;;;;;;;14.85;13.32;;;;;;;-3.46;80.48;99602.50;10399680;28;20445;-70
2022/12/13 00:58:20;;;;;;;14.80;12.73;;;;;;;-3.48;81.02;99595.63;10417495;28;20053;-70
2022/12/13 01:03:24;;;;;;;13.90;12.52;;;;;;;-3.53;80.64;99590.41;10417070;28;20044;-70
2022/12/13 01:08:27;;;;;;;14.75;11.77;;;;;;;-3.46;79.71;99602.50;10399682;28;20068;-69
2022/12/13 01:13:29;;;;;;;13.80;12.32;;;;;;;-3.46;80.60;99599.06;10416945;28;20068;-70
2022/12/13 01:18:31;;;;;;;13.77;12.45;;;;;;;-3.61;81.98;99607.38;10416698;28;20037;-71
2022/12/13 01:23:33;;;;;;;14.57;13.18;;;;;;;-3.72;82.79;99604.59;10416432;28;20535;-70
2022/12/13 01:28:35;;;;;;;15.05;13.65;;;;;;;-3.71;83.30;99590.09;10416325;28;20037;-72
2022/12/13 01:33:38;;;;;;;15.38;13.95;;;;;;;-3.59;82.86;99587.72;10399466;28;20418;-73
2022/12/13 01:38:40;;;;;;;16.85;14.90;;;;;;;-3.62;81.99;99591.13;10416965;28;20071;-71
2022/12/13 01:43:42;;;;;;;17.63;15.93;;;;;;;-3.66;82.49;99591.91;10418168;28;20483;-72
2022/12/13 01:49:08;;;;;;;16.52;14.93;;;;;;;-3.76;83.46;99584.88;10416986;28;20042;-72
2022/12/13 01:54:29;;;;;;;18.00;14.73;;;;;;;-3.72;82.40;99593.47;10398979;28;20541;-72
2022/12/13 01:59:38;;;;;;;15.68;14.20;;;;;;;-3.69;82.04;99596.97;10416519;28;20526;-72
2022/12/13 02:04:56;;;;;;;16.48;14.85;;;;;;;-3.70;82.88;99594.38;10417680;28;20056;-72
2022/12/13 02:10:00;;;;;;;15.93;14.52;;;;;;;-3.68;81.96;99583.28;10412077;22;20064;-73
2022/12/13 02:15:07;;;;;;;15.25;13.85;;;;;;;-3.69;81.41;99594.41;10417604;28;20046;-73
2022/12/13 02:20:49;;;;;;;16.48;14.77;;;;;;;-3.66;80.89;99589.31;10399644;28;20050;-73
2022/12/13 02:25:54;;;;;;;15.68;14.10;;;;;;;-3.64;81.37;99581.63;10397207;28;20114;-73
2022/12/13 02:31:17;;;;;;;13.98;12.70;;;;;;;-3.69;81.19;99589.25;10420431;28;20048;-73
2022/12/13 02:36:26;;;;;;;16.52;14.25;;;;;;;-3.65;81.05;99579.91;10409070;28;20119;-73
2022/12/13 02:41:38;;;;;;;15.40;13.93;;;;;;;-3.72;81.38;99586.63;10425437;28;20049;-73
2022/12/13 02:46:47;;;;;;;14.95;13.63;;;;;;;-3.64;80.68;99589.34;10425798;28;20049;-74
2022/12/13 02:51:51;;;;;;;15.65;13.40;;;;;;;-3.73;81.09;99584.03;10424848;28;20068;-72
2022/12/13 02:56:54;;;;;;;15.00;13.60;;;;;;;-3.84;81.40;99579.59;10426560;28;20045;-74
2022/12/13 03:02:03;;;;;;;13.20;11.90;;;;;;;-3.88;81.25;99576.94;10408463;28;20124;-73
2022/12/13 03:07:32;;;;;;;13.73;12.35;;;;;;;-3.83;80.64;99572.75;10423721;28;20038;-73
2022/12/13 03:18:04;;;;;;;13.77;12.52;;;;;;;-4.16;81.88;99578.09;10422728;28;20045;-72
2022/12/13 03:23:10;;;;;;;13.40;12.15;;;;;;;-4.15;80.92;99567.88;10404871;28;20434;-73
2022/12/13 03:28:12;;;;;;;13.43;12.13;;;;;;;-4.22;81.52;99578.84;10423187;28;20082;-73
2022/12/13 03:33:13;;;;;;;14.13;12.82;;;;;;;-4.35;81.25;99572.59;10405277;28;20063;-73
2022/12/13 03:38:17;;;;;;;14.80;13.60;;;;;;;-4.39;82.05;99570.78;10422896;28;20048;-73
2022/12/13 03:43:24;;;;;;;13.85;12.45;;;;;;;-4.45;81.66;99565.53;10423136;28;20052;-74
2022/12/13 03:48:26;;;;;;;15.75;14.25;;;;;;;-4.59;81.73;99560.13;10422329;28;20124;-73
2022/12/13 03:53:28;;;;;;;16.15;14.48;;;;;;;-4.72;82.12;99554.72;10422564;28;20051;-72
2022/12/13 03:58:35;;;;;;;15.70;14.30;;;;;;;-4.91;82.63;99554.31;10421240;28;20486;-72
2022/12/13 04:03:40;;;;;;;15.52;14.13;;;;;;;-4.99;82.75;99554.97;10421045;28;20052;-73
2022/12/13 04:08:42;;;;;;;15.63;13.98;;;;;;;-5.06;82.68;99559.06;10420568;28;20041;-73
2022/12/13 04:13:44;;;;;;;16.25;14.55;;;;;;;-5.19;82.54;99557.91;10402765;28;20152;-73
2022/12/13 04:18:45;;;;;;;16.15;14.68;;;;;;;-5.30;83.21;99554.25;10420735;28;20116;-72
2022/12/13 04:23:47;;;;;;;17.33;15.52;;;;;;;-5.41;83.89;99553.97;10420400;28;20048;-73
2022/12/13 04:28:49;;;;;;;17.88;15.90;;;;;;;-5.45;84.02;99554.72;10420115;28;20073;-73
2022/12/13 04:33:55;;;;;;;18.93;17.07;;;;;;;-5.62;84.34;99556.03;10419869;28;20550;-72
2022/12/13 04:38:57;;;;;;;18.52;16.65;;;;;;;-5.67;84.70;99553.31;10419161;28;20041;-72
2022/12/13 04:44:03;;;;;;;22.42;18.02;;;;;;;-5.66;84.49;99552.53;10420651;28;20069;-73
2022/12/13 04:49:04;;;;;;;30.45;18.60;;;;;;;-5.89;85.82;99559.63;10420064;28;20041;-72
2022/12/13 04:54:06;;;;;;;38.05;18.30;;;;;;;-5.68;83.29;99561.84;10402837;28;20430;-72
2022/12/13 04:59:25;;;;;;;19.33;16.75;;;;;;;-5.83;82.70;99553.78;10403932;28;20083;-74
2022/12/13 05:04:27;;;;;;;17.60;15.48;;;;;;;-5.87;82.58;99557.94;10419886;28;20049;-73
2022/12/13 05:09:34;;;;;;;18.08;16.27;;;;;;;-6.02;83.14;99556.69;10417889;28;20120;-73
2022/12/13 05:14:36;;;;;;;16.98;14.70;;;;;;;-6.13;84.23;99566.66;10400508;28;20051;-73
2022/12/13 05:19:37;;;;;;;18.00;15.73;;;;;;;-6.28;84.27;99567.09;10418877;28;20050;-72
2022/12/13 05:24:40;;;;;;;18.38;16.27;;;;;;;-6.35;84.49;99566.06;10400240;28;20045;-72
2022/12/13 05:29:42;;;;;;;17.05;15.20;;;;;;;-6.28;84.41;99574.78;10417345;28;20072;-73
2022/12/13 05:34:44;;;;;;;18.58;15.98;;;;;;;-6.22;84.51;99564.72;10400480;28;20052;-73
2022/12/13 05:39:45;;;;;;;17.15;15.35;;;;;;;-6.20;83.96;99564.75;10418105;28;20046;-73
2022/12/13 05:44:47;;;;;;;15.35;13.95;;;;;;;-6.19;83.07;99574.19;10399862;28;20041;-72
2022/12/13 05:49:49;;;;;;;15.18;13.68;;;;;;;-6.36;83.77;99571.13;10418120;28;20037;-72
2022/12/13 05:54:55;;;;;;;14.93;13.40;;;;;;;-6.48;83.36;99570.78;10399814;28;20046;-74
2022/12/13 06:00:04;;;;;;;14.50;13.10;;;;;;;-6.45;83.15;99569.19;10385566;28;20042;-73
2022/12/13 06:05:26;;;;;;;14.98;13.40;;;;;;;-6.39;80.29;99576.16;10423352;28;20041;-73
2022/12/13 06:10:28;;;;;;;12.73;11.52;;;;;;;-6.71;81.85;99581.22;10426372;28;20076;-72
2022/12/13 06:15:37;;;;;;;14.73;13.43;;;;;;;-6.76;82.50;99577.66;10409782;28;20045;-73
2022/12/13 06:20:55;;;;;;;13.77;12.38;;;;;;;-6.79;83.48;99581.78;10426238;28;20033;-72
2022/12/13 06:25:57;;;;;;;12.13;10.93;;;;;;;-6.78;82.59;99586.94;10427145;28;20132;-73
2022/12/13 06:31:00;;;;;;;12.52;11.18;;;;;;;-6.94;82.78;99590.75;10426975;28;20422;-72
2022/12/13 06:36:04;;;;;;;12.50;11.25;;;;;;;-6.97;83.67;99598.31;10427062;28;20069;-72
2022/12/13 06:41:15;;;;;;;13.50;12.13;;;;;;;-6.90;83.23;99597.69;10425127;28;20065;-73
2022/12/13 06:46:17;;;;;;;15.93;13.88;;;;;;;-6.99;83.14;99596.53;10426112;28;20049;-73
2022/12/13 06:51:19;;;;;;;23.05;13.55;;;;;;;-7.08;82.61;99603.88;10425135;28;20048;-73
2022/12/13 06:56:23;;;;;;;29.75;13.05;;;;;;;-6.84;81.72;99604.66;10424557;28;20120;-73
2022/12/13 07:01:24;;;;;;;41.83;16.02;;;;;;;-6.74;80.70;99595.56;10423829;28;20056;-72
2022/12/13 07:06:26;;;;;;;40.95;17.08;;;;;;;-6.82;80.48;99607.25;10406970;28;20053;-71
2022/12/13 07:11:32;;;;;;;43.08;15.57;;;;;;;-6.97;81.51;99605.09;10423800;28;20045;-71
2022/12/13 07:16:34;;;;;;;30.80;14.00;;;;;;;-7.02;82.56;99615.19;10423415;28;20483;-71
2022/12/13 07:21:37;;;;;;;26.73;14.48;;;;;;;-7.15;82.32;99615.59;10422303;28;20045;-71
2022/12/13 07:26:39;;;;;;;26.88;15.52;;;;;;;-7.22;83.79;99613.66;10404192;28;20050;-72
2022/12/13 07:31:42;;;;;;;13.40;11.90;;;;;;;-6.74;80.64;99624.56;10418432;28;20095;-72
2022/12/13 07:36:45;;;;;;;16.20;13.45;;;;;;;-6.76;80.41;99627.91;10419274;28;20103;-72
2022/12/13 07:41:47;;;;;;;17.45;13.48;;;;;;;-6.95;81.40;99632.44;10420997;28;20038;-72
2022/12/13 07:46:49;;;;;;;16.95;12.98;;;;;;;-6.88;81.33;99626.69;10402459;28;20056;-73
2022/12/13 07:51:51;;;;;;;15.57;12.38;;;;;;;-6.93;82.25;99642.69;10402562;28;20045;-72
2022/12/13 07:56:53;;;;;;;13.23;11.82;;;;;;;-6.55;80.54;99637.88;10420875;28;20452;-72
2022/12/13 08:02:05;;;;;;;15.00;12.45;;;;;;;-6.13;76.11;99643.41;10420179;28;20083;-72
2022/12/13 08:07:08;;;;;;;15.38;12.73;;;;;;;-6.14;76.07;99645.09;10402083;28;20567;-72
2022/12/13 08:12:10;;;;;;;19.55;12.85;;;;;;;-6.13;76.01;99638.28;10433408;22;20042;-75
2022/12/13 08:17:11;;;;;;;16.10;12.05;;;;;;;-6.40;77.90;99631.56;10420378;28;20060;-74
2022/12/13 08:22:13;;;;;;;15.10;11.18;;;;;;;-6.58;77.95;99632.69;10420191;28;20379;-75
2022/12/13 08:27:24;;;;;;;17.33;12.98;;;;;;;-6.70;78.38;99628.06;10404263;28;20133;-75
2022/12/13 08:32:26;;;;;;;15.30;11.88;;;;;;;-6.62;78.10;99632.59;10420257;28;20045;-74
2022/12/13 08:37:27;;;;;;;15.23;12.38;;;;;;;-6.04;77.43;99635.97;10418101;28;20045;-73
2022/12/13 08:42:29;;;;;;;17.17;11.13;;;;;;;-5.63;74.14;99631.09;10401263;28;20076;-74
2022/12/13 08:47:31;;;;;;;14.65;10.07;;;;;;;-5.46;74.67;99631.53;10418150;28;20064;-74
2022/12/13 08:52:38;;;;;;;11.65;10.18;;;;;;;-5.50;75.76;99628.03;10403280;28;20414;-74
2022/12/13 08:57:44;;;;;;;13.57;12.23;;;;;;;-5.33;74.38;99629.31;10402070;28;20045;-74
2022/12/13 09:02:45;;;;;;;12.80;11.45;;;;;;;-4.95;72.50;99624.28;10402049;28;20047;-74
2022/12/13 09:07:47;;;;;;;10.30;9.15;;;;;;;-5.18;73.32;99623.72;10418174;28;20051;-75
2022/12/13 09:12:49;;;;;;;9.88;8.88;;;;;;;-5.13;74.41;99621.28;10415642;28;20406;-74
2022/12/13 09:17:51;;;;;;;9.65;8.65;;;;;;;-5.21;74.02;99633.91;10416997;28;20505;-74
2022/12/13 09:22:53;;;;;;;10.85;9.13;;;;;;;-5.42;73.66;99630.78;10416699;28;20487;-74
2022/12/13 09:28:05;;;;;;;10.80;9.70;;;;;;;-5.59;74.43;99631.19;10399263;28;20049;-74
2022/12/13 09:33:07;;;;;;;11.88;10.68;;;;;;;-5.46;74.52;99627.28;10398815;28;20072;-75
2022/12/13 09:38:29;;;;;;;11.73;10.30;;;;;;;-5.41;75.13;99625.69;10402946;28;20503;-74
2022/12/13 09:43:37;;;;;;;12.00;9.70;;;;;;;-5.54;75.52;99627.91;10416506;28;20430;-74
2022/12/13 09:48:43;;;;;;;9.93;8.93;;;;;;;-5.30;75.63;99614.88;10398480;28;20046;-74
2022/12/13 09:53:51;;;;;;;14.82;11.05;;;;;;;-5.25;74.92;99615.84;10416788;28;20072;-75
2022/12/13 09:58:55;;;;;;;14.70;12.02;;;;;;;-5.21;75.01;99610.84;10418356;28;20038;-75
2022/12/13 10:03:59;;;;;;;17.88;11.38;;;;;;;-5.32;74.65;99612.25;10415931;28;20570;-74
2022/12/13 10:09:00;;;;;;;12.70;11.40;;;;;;;-5.20;74.33;99604.88;10415850;28;20041;-74
2022/12/13 10:14:14;;;;;;;13.95;12.52;;;;;;;-5.10;74.93;99596.56;10415442;28;20060;-74
2022/12/13 10:19:32;;;;;;;15.40;11.60;;;;;;;-4.73;73.35;99601.69;10418434;28;20111;-74
2022/12/13 10:24:48;;;;;;;15.40;12.80;;;;;;;-4.74;73.52;99592.25;10415020;28;20088;-74
2022/12/13 10:30:11;;;;;;;14.98;11.98;;;;;;;-4.84;73.40;99583.50;10397811;28;20111;-75
2022/12/13 10:35:25;;;;;;;15.43;13.20;;;;;;;-4.52;73.24;99580.75;10397398;28;20095;-74
2022/12/13 10:40:34;;;;;;;19.08;15.10;;;;;;;-4.56;74.00;99579.81;10398980;28;20045;-74
2022/12/13 10:45:36;;;;;;;17.60;15.77;;;;;;;-4.42;73.55;99575.88;10415581;28;20037;-73
2022/12/13 10:50:38;;;;;;;17.63;15.77;;;;;;;-4.17;73.11;99572.09;10416963;28;20052;-73
2022/12/13 10:55:41;;;;;;;17.15;14.88;;;;;;;-3.95;73.00;99567.38;10423179;28;20391;-74
2022/12/13 11:00:45;;;;;;;17.95;16.02;;;;;;;-3.37;70.76;99568.41;10422332;28;20088;-74
2022/12/13 11:06:01;;;;;;;19.25;15.07;;;;;;;-3.12;69.90;99559.38;10424447;28;20038;-73
2022/12/13 11:11:05;;;;;;;16.00;14.33;;;;;;;-1.28;63.56;99555.56;10405130;28;20483;-73
2022/12/13 11:16:29;;;;;;;13.75;12.35;;;;;;;0.45;60.45;99547.78;10422484;28;20045;-73
2022/12/13 11:21:35;;;;;;;14.95;13.48;;;;;;;3.23;53.12;99543.97;10421676;28;20049;-74
2022/12/13 11:26:41;;;;;;;13.43;12.23;;;;;;;5.22;46.29;99543.81;10405954;28;20055;-72
2022/12/13 11:31:50;;;;;;;11.70;10.77;;;;;;;5.41;44.97;99544.31;10402219;28;20187;-73
2022/12/13 11:37:00;;;;;;;12.93;11.23;;;;;;;4.41;44.53;99542.50;10420446;28;20053;-72
2022/12/13 11:42:14;;;;;;;11.38;10.52;;;;;;;4.48;45.74;99540.69;10402440;28;20120;-73
2022/12/13 11:47:24;;;;;;;12.48;11.48;;;;;;;3.89;46.37;99540.59;10420947;28;20380;-71
2022/12/13 11:52:39;;;;;;;11.90;10.93;;;;;;;2.68;46.83;99543.59;10419891;28;20037;-72
2022/12/13 11:57:53;;;;;;;11.48;10.52;;;;;;;1.60;49.75;99550.25;10402769;28;20044;-72
2022/12/13 12:03:05;;;;;;;10.52;9.63;;;;;;;0.99;54.46;99549.50;10418959;28;20479;-73
2022/12/13 12:08:25;;;;;;;10.38;9.43;;;;;;;1.21;51.78;99545.16;10420874;28;20533;-73
2022/12/13 12:13:41;;;;;;;12.83;11.53;;;;;;;1.74;52.55;99531.19;10419166;28;20425;-72
2022/12/13 12:18:52;;;;;;;11.48;10.57;;;;;;;1.22;51.28;99536.50;10418773;28;20037;-72
2022/12/13 12:24:08;;;;;;;12.00;10.90;;;;;;;0.79;51.73;99535.69;10400402;28;20498;-72
2022/12/13 12:29:16;;;;;;;11.57;10.52;;;;;;;-0.12;56.36;99534.72;10402563;28;20487;-72
2022/12/13 12:34:50;;;;;;;11.20;10.05;;;;;;;-0.99;59.73;99536.84;10400679;28;20103;-73
2022/12/13 12:40:24;;;;;;;10.52;9.52;;;;;;;-1.48;60.69;99536.47;10417370;28;20042;-72
2022/12/13 12:46:10;;;;;;;11.02;10.02;;;;;;;-1.70;63.92;99531.97;10415657;28;20107;-72
2022/12/13 12:51:29;;;;;;;14.43;12.43;;;;;;;-2.23;63.89;99529.72;10415840;28;20042;-72
2022/12/13 12:56:49;;;;;;;14.05;12.55;;;;;;;-2.18;63.90;99528.03;10415781;28;20048;-73
2022/12/13 13:02:06;;;;;;;13.50;12.25;;;;;;;-2.61;66.56;99535.25;10416746;28;20041;-73
2022/12/13 13:07:32;;;;;;;11.90;10.70;;;;;;;-2.29;64.74;99530.50;10400133;28;20368;-74
2022/12/13 13:12:41;;;;;;;12.35;11.15;;;;;;;-2.65;66.75;99523.19;10399418;28;20077;-73
2022/12/13 13:17:45;;;;;;;15.18;13.57;;;;;;;-2.84;68.88;99524.63;10417847;28;20046;-73
2022/12/13 13:22:48;;;;;;;15.40;13.80;;;;;;;-2.66;67.42;99522.31;10417003;28;20091;-73
2022/12/13 13:28:16;;;;;;;20.25;16.23;;;;;;;-2.69;68.10;99521.44;10416701;28;20041;-74
2022/12/13 13:33:48;;;;;;;14.05;12.40;;;;;;;-2.75;67.70;99511.91;10416407;28;20037;-73
2022/12/13 13:38:52;;;;;;;16.30;10.98;;;;;;;-2.71;67.85;99516.25;10416731;28;20046;-73
2022/12/13 13:43:54;;;;;;;12.93;10.70;;;;;;;-2.81;68.08;99517.84;10416305;28;20049;-72
2022/12/13 13:49:08;;;;;;;13.32;12.02;;;;;;;-2.77;68.49;99526.47;10420808;28;20048;-73
2022/12/13 13:54:25;;;;;;;12.00;10.32;;;;;;;-2.92;68.87;99528.81;10421054;28;20053;-74
2022/12/13 13:59:52;;;;;;;11.52;10.32;;;;;;;-3.20;70.56;99537.81;10418887;28;20057;-74
2022/12/13 14:05:05;;;;;;;12.23;10.70;;;;;;;-3.15;70.66;99543.91;10421512;28;20037;-74
2022/12/13 14:10:26;;;;;;;10.73;9.70;;;;;;;-3.03;70.30;99538.09;10422354;28;20042;-72
2022/12/13 14:15:54;;;;;;;12.77;10.85;;;;;;;-2.85;70.18;99536.63;10395751;22;20072;-73
2022/12/13 14:21:21;;;;;;;10.80;9.57;;;;;;;-3.01;69.89;99552.72;10375161;28;20502;-72
2022/12/13 14:26:43;;;;;;;11.17;10.00;;;;;;;-3.20;70.77;99542.97;10378262;28;20483;-73
2022/12/13 14:31:52;;;;;;;11.50;10.30;;;;;;;-3.45;71.76;99539.13;10383410;28;20450;-73
2022/12/13 14:37:05;;;;;;;16.23;12.38;;;;;;;-3.50;72.00;99535.63;10382900;28;20092;-72
2022/12/13 14:42:23;;;;;;;11.95;10.35;;;;;;;-3.53;72.71;99541.59;10383453;28;20100;-72
2022/12/13 14:47:26;;;;;;;15.35;13.93;;;;;;;-3.71;73.39;99551.56;10381567;28;20064;-72
2022/12/13 14:52:34;;;;;;;16.77;14.23;;;;;;;-3.87;74.15;99548.69;10382390;28;20526;-72
2022/12/13 14:57:36;;;;;;;16.92;14.60;;;;;;;-4.00;74.94;99543.31;10382389;28;20045;-71
2022/12/13 15:02:49;;;;;;;17.63;15.02;;;;;;;-4.20;75.51;99533.56;10382724;28;20042;-72
2022/12/13 15:07:52;;;;;;;16.13;13.57;;;;;;;-4.38;75.81;99539.19;10382972;28;20046;-73
2022/12/13 15:12:54;;;;;;;16.55;14.95;;;;;;;-4.37;75.40;99543.47;10385210;28;20411;-72
2022/12/13 15:18:08;;;;;;;18.40;16.48;;;;;;;-4.44;75.65;99527.94;10386522;28;20145;-72
2022/12/13 15:23:28;;;;;;;;;;;;;;;-4.49;77.03;99524.41;10387357;28;20040;-72
2022/12/13 15:28:38;;;;;;;19.00;15.27;;;;;;;-4.58;77.10;99523.38;10383275;28;19921;-71
2022/12/13 15:33:40;;;;;;;17.70;15.43;;;;;;;-4.62;77.80;99516.44;10383559;28;20112;-73
2022/12/13 15:38:52;;;;;;;22.80;15.80;;;;;;;-4.78;79.09;99528.91;10385871;28;20045;-72
2022/12/13 15:44:02;;;;;;;19.85;16.38;;;;;;;-4.92;79.67;99533.75;10381611;28;20562;-73
2022/12/13 15:49:15;;;;;;;22.92;16.83;;;;;;;-4.95;80.11;99531.13;10381534;28;20508;-72
2022/12/13 15:54:20;;;;;;;20.77;16.67;;;;;;;-4.89;79.55;99527.00;10387994;28;20120;-72
2022/12/13 15:59:42;;;;;;;21.73;18.00;;;;;;;-4.76;78.94;99523.00;10381693;28;20454;-73
2022/12/13 16:04:45;;;;;;;29.08;18.25;;;;;;;-5.04;79.99;99524.09;10382131;28;20053;-72
2022/12/13 16:09:49;;;;;;;28.25;17.95;;;;;;;-5.28;81.66;99519.28;10380502;28;20052;-72
2022/12/13 16:14:51;;;;;;;25.75;18.45;;;;;;;-5.46;82.22;99527.38;10380425;28;20042;-72
2022/12/13 16:20:07;;;;;;;42.20;24.08;;;;;;;-5.45;81.98;99533.38;10381158;28;20033;-72
2022/12/13 16:25:13;;;;;;;41.88;22.75;;;;;;;-5.60;82.82;99539.00;10382671;28;20117;-73
2022/12/13 16:30:23;;;;;;;36.85;20.40;;;;;;;-5.72;83.91;99529.31;10382534;28;20092;-72
2022/12/13 16:35:25;;;;;;;52.67;22.38;;;;;;;-5.63;83.97;99523.53;10381501;28;20052;-72
2022/12/13 16:40:31;;;;;;;33.55;19.80;;;;;;;-5.65;83.20;99513.28;10382426;28;20112;-72
2022/12/13 16:45:39;;;;;;;23.63;18.48;;;;;;;-5.67;83.55;99514.91;10383254;28;20095;-71
2022/12/13 16:50:46;;;;;;;24.73;19.00;;;;;;;-5.82;83.71;99514.56;10380255;28;20129;-73
2022/12/13 16:55:58;;;;;;;28.83;19.90;;;;;;;-5.89;84.48;99505.88;10386661;28;20045;-71
2022/12/13 17:01:01;;;;;;;32.45;20.75;;;;;;;-5.98;84.16;99497.09;10387926;28;20100;-72
2022/12/13 17:06:04;;;;;;;29.45;19.67;;;;;;;-6.05;83.77;99492.66;10384993;28;20046;-72
2022/12/13 17:11:08;;;;;;;23.55;18.48;;;;;;;-6.11;84.01;99501.03;10388798;28;20033;-71
2022/12/13 17:16:18;;;;;;;28.23;19.20;;;;;;;-5.69;83.54;99495.25;10382003;28;20053;-72
2022/12/13 17:21:24;;;;;;;23.35;19.23;;;;;;;-5.90;83.39;99491.31;10379225;28;20046;-72
2022/12/13 17:26:28;;;;;;;26.38;19.65;;;;;;;-6.13;84.33;99489.91;10385165;28;20049;-71
2022/12/13 17:31:32;;;;;;;26.85;20.42;;;;;;;-6.18;85.02;99492.34;10389599;28;20045;-72
2022/12/13 17:36:36;;;;;;;31.63;23.27;;;;;;;-6.02;84.54;99496.19;10381979;28;20076;-72
2022/12/13 17:41:38;;;;;;;31.13;20.90;;;;;;;-6.27;84.78;99504.03;10379913;28;20500;-71
2022/12/13 17:46:40;;;;;;;32.67;22.88;;;;;;;-6.35;85.55;99498.69;10385844;28;20052;-72
2022/12/13 17:51:55;;;;;;;39.17;23.05;;;;;;;-6.39;85.77;99496.88;10385353;28;20395;-72
2022/12/13 17:56:57;;;;;;;32.85;22.45;;;;;;;-6.45;86.07;99502.69;10384159;28;20095;-71
2022/12/13 18:02:01;;;;;;;44.95;24.23;;;;;;;-6.49;86.18;99498.31;10386420;28;20057;-72
2022/12/13 18:07:03;;;;;;;55.17;27.42;;;;;;;-6.71;86.22;99491.75;10387679;28;20054;-73
2022/12/13 18:12:07;;;;;;;33.97;24.08;;;;;;;-6.75;86.01;99497.59;10393168;28;20498;-71
2022/12/13 18:17:09;;;;;;;36.17;22.42;;;;;;;-6.76;85.36;99487.34;10390491;28;20045;-72
2022/12/13 18:22:11;;;;;;;37.78;21.92;;;;;;;-6.90;84.68;99492.06;10389835;28;20050;-72
2022/12/13 18:27:13;;;;;;;40.83;22.90;;;;;;;-6.93;85.40;99481.72;10391941;28;20070;-72
2022/12/13 18:32:15;;;;;;;48.63;26.65;;;;;;;-7.25;86.35;99481.66;10386733;28;20356;-72
2022/12/13 18:37:17;;;;;;;47.38;24.92;;;;;;;-7.23;86.80;99477.44;10384452;28;20100;-71
2022/12/13 18:42:18;;;;;;;39.17;24.90;;;;;;;-7.12;85.62;99491.41;10387585;28;20045;-71
2022/12/13 18:47:20;;;;;;;36.65;23.75;;;;;;;-7.25;85.88;99488.44;10386447;28;20499;-72
2022/12/13 18:52:22;;;;;;;40.17;24.10;;;;;;;-7.35;85.87;99489.84;10388051;28;20042;-73
2022/12/13 18:57:24;;;;;;;42.50;24.88;;;;;;;-7.46;86.66;99483.53;10385776;28;20046;-72
2022/12/13 19:02:27;;;;;;;49.67;25.83;;;;;;;-7.40;85.10;99482.03;10386939;28;20396;-72
2022/12/13 19:07:35;;;;;;;43.80;26.05;;;;;;;-7.46;85.48;99481.00;10387943;28;20192;-72
2022/12/13 19:12:37;;;;;;;43.80;24.83;;;;;;;-7.51;85.37;99469.78;10388168;28;20037;-73
2022/12/13 19:17:38;;;;;;;42.97;24.73;;;;;;;-7.74;85.46;99471.59;10382794;28;20038;-71
2022/12/13 19:22:40;;;;;;;45.88;25.13;;;;;;;-7.79;85.85;99468.91;10383063;28;20038;-72
2022/12/13 19:27:45;;;;;;;63.53;30.67;;;;;;;-7.83;85.84;99486.63;10383246;28;20060;-72
2022/12/13 19:32:47;;;;;;;37.63;23.10;;;;;;;-7.92;85.67;99489.75;10382386;28;20056;-71
2022/12/13 19:37:48;;;;;;;51.30;26.15;;;;;;;-8.10;86.35;99484.00;10381640;28;20070;-71
2022/12/13 19:42:50;;;;;;;58.75;27.88;;;;;;;-8.16;86.14;99477.88;10381545;28;20108;-71
2022/12/13 19:47:52;;;;;;;62.28;28.95;;;;;;;-8.30;87.86;99466.38;10379610;28;20080;-72
2022/12/13 19:52:54;;;;;;;61.28;27.30;;;;;;;-7.64;89.09;99459.19;10379481;28;20034;-72
2022/12/13 19:57:56;;;;;;;62.35;29.67;;;;;;;-7.64;88.34;99453.22;10379948;28;20124;-72
2022/12/13 20:02:58;;;;;;;67.18;31.38;;;;;;;-7.53;87.74;99461.19;10378593;28;20065;-71
2022/12/13 20:08:00;;;;;;;66.60;28.85;;;;;;;-7.41;87.22;99464.13;10379335;28;20037;-71
2022/12/13 20:13:02;;;;;;;64.15;31.60;;;;;;;-7.54;86.22;99459.47;10380991;28;20049;-72
2022/12/13 20:18:04;;;;;;;64.80;30.75;;;;;;;-7.66;85.63;99454.84;10461005;23;20045;-75
2022/12/13 20:23:05;;;;;;;72.72;31.77;;;;;;;-7.74;84.11;99456.31;10461713;28;20044;-73
2022/12/13 20:28:07;;;;;;;61.08;29.52;;;;;;;-7.99;85.40;99457.19;10462761;28;20470;-74
2022/12/13 20:33:14;;;;;;;49.20;28.30;;;;;;;-8.06;86.45;99458.66;10443413;28;20136;-74
2022/12/13 20:38:17;;;;;;;47.47;26.42;;;;;;;-8.13;87.63;99465.25;10462623;28;20049;-74
2022/12/13 20:43:18;;;;;;;53.60;26.20;;;;;;;-7.94;87.54;99459.06;10461764;28;20044;-74
2022/12/13 20:48:21;;;;;;;38.80;24.63;;;;;;;-7.72;86.55;99450.41;10463842;28;20048;-75
2022/12/13 20:53:23;;;;;;;40.38;22.55;;;;;;;-7.58;85.86;99447.41;10461483;28;20061;-74
2022/12/13 20:58:26;;;;;;;51.13;25.67;;;;;;;-7.63;84.75;99448.16;10460014;28;20146;-74
2022/12/13 21:03:27;;;;;;;38.47;22.70;;;;;;;-7.92;85.56;99448.94;10459679;28;20060;-74
2022/12/13 21:13:57;;;;;;;42.97;25.85;;;;;;;-7.74;84.46;99431.66;10463242;28;20402;-74
2022/12/13 21:19:13;;;;;;;45.40;25.57;;;;;;;-7.83;84.67;99438.16;10427080;28;20049;-74
2022/12/13 21:24:26;;;;;;;55.15;25.40;;;;;;;-7.99;84.91;99434.22;10443080;28;20045;-75
2022/12/13 21:29:40;;;;;;;51.03;24.65;;;;;;;-8.11;85.93;99429.59;10446596;28;20077;-75
2022/12/13 21:34:43;;;;;;;61.30;26.00;;;;;;;-8.07;86.57;99421.22;10443544;28;20052;-74
2022/12/13 21:39:45;;;;;;;59.58;26.83;;;;;;;-8.00;85.29;99414.66;10457824;28;20406;-74
2022/12/13 21:44:51;;;;;;;58.22;27.23;;;;;;;-8.09;86.21;99406.72;10440238;28;20442;-73
2022/12/13 21:49:52;;;;;;;55.83;24.85;;;;;;;-8.08;86.56;99396.53;10461542;28;20044;-74
2022/12/13 21:54:54;;;;;;;47.17;24.42;;;;;;;-8.11;87.01;99396.44;10463246;28;20037;-74
2022/12/13 22:00:16;;;;;;;49.88;24.60;;;;;;;-8.21;87.57;99382.53;10457349;28;20112;-74
2022/12/13 22:05:18;;;;;;;47.00;24.73;;;;;;;-8.22;87.91;99378.25;10457274;28;20045;-73
2022/12/13 22:10:22;;;;;;;48.92;24.42;;;;;;;-8.07;87.42;99379.56;10457320;28;20048;-74
2022/12/13 22:15:27;;;;;;;42.22;25.35;;;;;;;-8.18;88.33;99377.53;10441276;28;20132;-74
2022/12/13 22:20:32;;;;;;;54.22;25.50;;;;;;;-8.10;88.20;99387.09;10439243;28;20044;-74
2022/12/13 22:25:35;;;;;;;47.95;24.20;;;;;;;-8.05;87.68;99370.28;10440269;28;20536;-74
2022/12/13 22:30:36;;;;;;;52.15;25.40;;;;;;;-8.08;87.59;99377.84;10460519;28;20033;-73
2022/12/13 22:35:39;;;;;;;38.40;24.27;;;;;;;-7.95;86.80;99365.50;10459537;28;20037;-73
2022/12/13 22:40:41;;;;;;;43.58;24.90;;;;;;;-7.96;86.32;99368.03;10456870;28;20074;-73
2022/12/13 22:45:43;;;;;;;47.10;24.10;;;;;;;-8.12;87.51;99361.56;10457268;28;20386;-74
2022/12/13 22:50:47;;;;;;;36.40;23.67;;;;;;;-8.04;88.10;99359.25;10448525;28;20120;-74
2022/12/13 22:55:49;;;;;;;47.63;25.25;;;;;;;-8.00;88.24;99349.19;10468644;28;20037;-74
2022/12/13 23:00:54;;;;;;;45.60;24.30;;;;;;;-7.63;87.23;99340.97;10447621;28;20474;-74
2022/12/13 23:06:14;;;;;;;44.50;22.75;;;;;;;-7.61;86.25;99341.03;10464559;28;20037;-74
2022/12/13 23:16:38;;;;;;;46.97;22.60;;;;;;;-7.46;85.38;99323.59;10465281;28;20487;-73
2022/12/13 23:21:40;;;;;;;46.08;23.27;;;;;;;-7.50;85.80;99320.91;10445310;28;20041;-73
2022/12/13 23:26:48;;;;;;;37.22;21.30;;;;;;;-7.63;85.26;99320.53;10463443;28;20049;-74
2022/12/13 23:31:50;;;;;;;35.58;22.00;;;;;;;-7.69;85.15;99314.41;10461656;28;20494;-73